Time;durP1;ratioP1;P1;durP2;ratioP2;P2;SDS_P1;SDS_P2;PMS_P1;PMS_P2;Temp;Humidity;BMP_temperature;BMP_pressure;BME280_temperature;BME280_humidity;BME280_pressure;Samples;Min_cycle;Max_cycle;Signal;HPM_P1;HPM_P2
2022/01/15 00:01:18;;;;;;;14.13;5.00;;;;;;;;;;5144933;27;20032;-59
2022/01/15 00:03:44;;;;;;;23.00;6.47;;;;;;;;;;5153768;27;20098;-59
2022/01/15 00:06:10;;;;;;;23.52;6.88;;;;;;;;;;5146512;27;20042;-60
2022/01/15 00:08:36;;;;;;;56.83;5.93;;;;;;;;;;5146305;27;20047;-61
2022/01/15 00:11:03;;;;;;;48.15;7.20;;;;;;;;;;5153512;27;20097;-60
2022/01/15 00:13:31;;;;;;;95.50;7.40;;;;;;;;;;5145112;27;20051;-61
2022/01/15 00:16:14;;;;;;;86.03;9.75;;;;;;;;;;5149692;27;20044;-60
2022/01/15 00:18:47;;;;;;;109.60;10.57;;;;;;;;;;5143839;27;20038;-60
2022/01/15 00:21:13;;;;;;;309.50;15.27;;;;;;;;;;5151541;27;20043;-60
2022/01/15 00:23:39;;;;;;;96.28;8.85;;;;;;;;;;5142892;27;20453;-60
2022/01/15 00:26:06;;;;;;;293.20;14.15;;;;;;;;;;5146021;27;20043;-59
2022/01/15 00:28:32;;;;;;;132.80;10.30;;;;;;;;;;5155752;27;20055;-59
2022/01/15 00:30:58;;;;;;;165.30;10.65;;;;;;;;;;5148009;27;20103;-59
2022/01/15 00:33:25;;;;;;;84.30;7.50;;;;;;;;;;5155913;27;20050;-60
2022/01/15 00:35:55;;;;;;;149.32;8.93;;;;;;;;;;5150233;27;20081;-60
2022/01/15 00:38:21;;;;;;;114.45;8.52;;;;;;;;;;5148497;27;20050;-59
2022/01/15 00:40:47;;;;;;;132.60;9.07;;;;;;;;;;5154434;27;20058;-60
2022/01/15 00:43:15;;;;;;;102.70;8.77;;;;;;;;;;5131370;27;20083;-60
2022/01/15 00:45:41;;;;;;;61.13;6.03;;;;;;;;;;5154186;27;20125;-59
2022/01/15 00:48:08;;;;;;;46.03;5.10;;;;;;;;;;5153986;27;20043;-60
2022/01/15 00:50:34;;;;;;;46.97;5.00;;;;;;;;;;5147242;27;20067;-59
2022/01/15 00:53:00;;;;;;;33.40;4.75;;;;;;;;;;5147441;27;20043;-60
2022/01/15 00:55:26;;;;;;;43.88;5.85;;;;;;;;;;5148310;27;20042;-60
2022/01/15 00:57:52;;;;;;;75.72;5.55;;;;;;;;;;5147829;27;20074;-60
2022/01/15 01:00:22;;;;;;;82.47;5.80;;;;;;;;;;5147157;27;20054;-60
2022/01/15 01:02:48;;;;;;;83.07;6.25;;;;;;;;;;5148279;27;20039;-60
2022/01/15 01:05:15;;;;;;;81.90;6.80;;;;;;;;;;5147690;27;20062;-60
2022/01/15 01:07:41;;;;;;;104.30;6.15;;;;;;;;;;5148244;27;20108;-60
2022/01/15 01:23:25;;;;;;;18.38;4.07;;;;;;;;;;5147942;27;20078;-59
2022/01/15 01:25:57;;;;;;;42.75;4.40;;;;;;;;;;5147659;27;20035;-59
2022/01/15 01:28:37;;;;;;;31.60;3.90;;;;;;;;;;5147787;27;20108;-59
2022/01/15 01:31:12;;;;;;;24.38;4.65;;;;;;;;;;5147495;27;20051;-59
2022/01/15 01:33:43;;;;;;;32.13;3.85;;;;;;;;;;5147919;27;20047;-59
2022/01/15 01:36:41;;;;;;;17.50;3.50;;;;;;;;;;5146975;27;20047;-59
2022/01/15 01:39:13;;;;;;;18.90;2.10;;;;;;;;;;5147713;27;20039;-59
2022/01/15 01:41:47;;;;;;;22.60;3.20;;;;;;;;;;5147426;27;20059;-59
2022/01/15 01:44:18;;;;;;;67.75;4.10;;;;;;;;;;5147755;27;20055;-60
2022/01/15 01:47:00;;;;;;;32.80;3.50;;;;;;;;;;5147373;27;20043;-60
2022/01/15 01:49:26;;;;;;;26.80;2.58;;;;;;;;;;5147905;27;20421;-59
2022/01/15 01:51:52;;;;;;;23.02;1.90;;;;;;;;;;5146011;27;20072;-59
2022/01/15 01:54:18;;;;;;;68.32;3.80;;;;;;;;;;5147629;27;20050;-60
2022/01/15 01:56:47;;;;;;;24.48;2.53;;;;;;;;;;5147296;27;20116;-60
2022/01/15 01:59:16;;;;;;;30.20;2.63;;;;;;;;;;5147181;27;20047;-59
2022/01/15 02:01:45;;;;;;;36.05;3.42;;;;;;;;;;5147456;27;20043;-59
2022/01/15 02:04:11;;;;;;;31.25;2.83;;;;;;;;;;5147418;27;20073;-59
2022/01/15 02:06:37;;;;;;;37.53;3.38;;;;;;;;;;5146357;27;20098;-59
2022/01/15 02:09:07;;;;;;;10.85;2.22;;;;;;;;;;5147122;27;20098;-59
2022/01/15 02:11:33;;;;;;;9.10;2.38;;;;;;;;;;5146844;27;20055;-59
2022/01/15 02:13:59;;;;;;;25.05;3.05;;;;;;;;;;5147180;27;20070;-59
2022/01/15 02:16:26;;;;;;;25.05;3.25;;;;;;;;;;5146532;27;20117;-60
2022/01/15 02:18:55;;;;;;;10.02;2.88;;;;;;;;;;5147101;27;20074;-59
2022/01/15 02:24:07;;;;;;;7.85;2.28;;;;;;;;;;5146035;27;20046;-61
2022/01/15 02:26:37;;;;;;;5.45;2.30;;;;;;;;;;5146202;27;20047;-59
2022/01/15 02:29:03;;;;;;;6.70;2.50;;;;;;;;;;5146860;27;20435;-60
2022/01/15 02:31:30;;;;;;;6.70;2.53;;;;;;;;;;5146565;27;20047;-60
2022/01/15 02:33:57;;;;;;;4.30;2.25;;;;;;;;;;5146835;27;20111;-60
2022/01/15 02:36:24;;;;;;;6.20;2.17;;;;;;;;;;5145884;27;20070;-60
2022/01/15 02:38:51;;;;;;;10.20;2.17;;;;;;;;;;5146028;27;20035;-60
2022/01/15 02:41:36;;;;;;;15.30;2.95;;;;;;;;;;5146153;27;20126;-60
2022/01/15 02:44:03;;;;;;;10.32;2.83;;;;;;;;;;5145208;27;20473;-60
2022/01/15 02:49:00;;;;;;;10.52;2.90;;;;;;;;;;5146325;27;20047;-59
2022/01/15 02:51:30;;;;;;;9.30;2.72;;;;;;;;;;5145361;27;20506;-59
2022/01/15 02:54:00;;;;;;;8.43;2.58;;;;;;;;;;5145911;27;20043;-61
2022/01/15 02:56:27;;;;;;;7.38;2.55;;;;;;;;;;5145904;27;20062;-59
2022/01/15 02:58:54;;;;;;;10.00;2.88;;;;;;;;;;5146236;27;20035;-61
2022/01/15 03:01:20;;;;;;;6.82;2.90;;;;;;;;;;5145947;27;20562;-59
2022/01/15 03:03:46;;;;;;;11.38;3.53;;;;;;;;;;5146091;27;20057;-59
2022/01/15 03:06:13;;;;;;;7.95;2.80;;;;;;;;;;5144862;27;20276;-59
2022/01/15 03:08:40;;;;;;;9.70;3.00;;;;;;;;;;5146011;27;20039;-59
2022/01/15 03:11:07;;;;;;;15.45;4.00;;;;;;;;;;5126828;27;20044;-59
2022/01/15 03:13:34;;;;;;;10.93;3.00;;;;;;;;;;5125318;28;20040;-60
2022/01/15 03:16:00;;;;;;;12.52;3.78;;;;;;;;;;5123872;28;20096;-59
2022/01/15 03:18:26;;;;;;;22.08;5.50;;;;;;;;;;5124084;28;20047;-59
2022/01/15 03:20:52;;;;;;;20.10;4.45;;;;;;;;;;5136068;27;20422;-58
2022/01/15 03:23:18;;;;;;;12.70;4.30;;;;;;;;;;5145600;27;20047;-59
2022/01/15 03:25:44;;;;;;;10.73;3.45;;;;;;;;;;5145500;27;20043;-59
2022/01/15 03:28:10;;;;;;;17.20;3.55;;;;;;;;;;5145804;27;20042;-59
2022/01/15 03:30:37;;;;;;;15.60;3.55;;;;;;;;;;5145393;27;20099;-59
2022/01/15 03:33:04;;;;;;;18.55;3.97;;;;;;;;;;5146019;27;20100;-59
2022/01/15 03:35:30;;;;;;;13.43;3.40;;;;;;;;;;5144242;27;20051;-59
2022/01/15 03:37:56;;;;;;;16.90;3.47;;;;;;;;;;5145019;27;20044;-59
2022/01/15 03:40:22;;;;;;;20.42;4.57;;;;;;;;;;5145280;27;20087;-60
2022/01/15 03:42:48;;;;;;;17.05;4.00;;;;;;;;;;5145458;28;20089;-60
2022/01/15 03:45:15;;;;;;;25.23;4.32;;;;;;;;;;5145576;28;20077;-60
2022/01/15 03:47:42;;;;;;;21.38;4.15;;;;;;;;;;5145669;28;20056;-60
2022/01/15 03:50:09;;;;;;;14.23;3.83;;;;;;;;;;5144497;28;20043;-60
2022/01/15 03:52:35;;;;;;;15.43;3.65;;;;;;;;;;5145344;28;20035;-60
2022/01/15 03:55:01;;;;;;;24.50;4.80;;;;;;;;;;5145387;28;20039;-60
2022/01/15 03:57:27;;;;;;;16.58;4.00;;;;;;;;;;5144269;28;20146;-60
2022/01/15 03:59:54;;;;;;;14.57;3.80;;;;;;;;;;5145399;28;20043;-61
2022/01/15 04:02:20;;;;;;;23.02;4.57;;;;;;;;;;5145520;28;20094;-60
2022/01/15 04:04:46;;;;;;;23.73;4.40;;;;;;;;;;5145249;28;20126;-58
2022/01/15 04:07:12;;;;;;;22.17;4.25;;;;;;;;;;5144629;28;20047;-61
2022/01/15 04:09:38;;;;;;;17.48;3.65;;;;;;;;;;5145357;28;20039;-59
2022/01/15 04:12:04;;;;;;;40.17;4.88;;;;;;;;;;5145048;28;20046;-60
2022/01/15 04:14:30;;;;;;;45.42;4.68;;;;;;;;;;5145478;28;20060;-58
2022/01/15 04:16:57;;;;;;;44.78;5.20;;;;;;;;;;5145258;28;20125;-58
2022/01/15 04:19:24;;;;;;;40.13;4.60;;;;;;;;;;5144767;28;20043;-58
2022/01/15 04:21:50;;;;;;;25.33;4.20;;;;;;;;;;5144320;27;20043;-60
2022/01/15 04:24:17;;;;;;;37.13;5.43;;;;;;;;;;5145104;28;20095;-59
2022/01/15 04:26:44;;;;;;;48.60;5.83;;;;;;;;;;5145138;27;20047;-60
2022/01/15 04:29:10;;;;;;;60.95;4.90;;;;;;;;;;5145456;28;20120;-59
2022/01/15 04:31:47;;;;;;;49.00;5.47;;;;;;;;;;5145005;28;20065;-59
2022/01/15 04:34:14;;;;;;;47.38;5.28;;;;;;;;;;5144791;27;20047;-59
2022/01/15 04:36:40;;;;;;;52.13;5.50;;;;;;;;;;5144235;27;20085;-60
2022/01/15 04:39:06;;;;;;;61.30;7.25;;;;;;;;;;5144225;28;20088;-60
2022/01/15 04:41:32;;;;;;;32.47;4.45;;;;;;;;;;5144795;28;20051;-60
2022/01/15 04:43:59;;;;;;;41.67;5.50;;;;;;;;;;5145351;28;20051;-59
2022/01/15 04:46:25;;;;;;;31.35;4.43;;;;;;;;;;5144520;28;20050;-59
2022/01/15 04:48:51;;;;;;;17.77;3.80;;;;;;;;;;5147441;27;20072;-59
2022/01/15 04:51:17;;;;;;;21.40;3.92;;;;;;;;;;5147892;27;20050;-60
2022/01/15 04:53:43;;;;;;;19.60;3.67;;;;;;;;;;5147243;27;20103;-60
2022/01/15 04:56:09;;;;;;;14.95;3.53;;;;;;;;;;5148490;27;20404;-59
2022/01/15 04:58:35;;;;;;;18.23;3.40;;;;;;;;;;5148706;27;20091;-59
2022/01/15 05:01:01;;;;;;;11.93;2.97;;;;;;;;;;5148316;27;20078;-58
2022/01/15 05:03:27;;;;;;;14.20;3.25;;;;;;;;;;5148562;27;20039;-59
2022/01/15 05:05:54;;;;;;;13.77;3.22;;;;;;;;;;5147187;27;20043;-59
2022/01/15 05:08:20;;;;;;;18.15;3.63;;;;;;;;;;5148469;27;20078;-60
2022/01/15 05:10:47;;;;;;;15.13;3.42;;;;;;;;;;5148603;27;20067;-60
2022/01/15 05:13:14;;;;;;;15.82;4.53;;;;;;;;;;5148315;27;20113;-59
2022/01/15 05:15:44;;;;;;;10.73;4.00;;;;;;;;;;5147974;27;20074;-59
2022/01/15 05:18:11;;;;;;;12.63;3.60;;;;;;;;;;5147901;27;20043;-59
2022/01/15 05:20:45;;;;;;;8.27;3.10;;;;;;;;;;5146645;27;20532;-60
2022/01/15 05:23:11;;;;;;;9.27;3.60;;;;;;;;;;5148267;27;20060;-60
2022/01/15 05:25:37;;;;;;;8.63;3.88;;;;;;;;;;5148286;27;20049;-60
2022/01/15 05:28:04;;;;;;;15.65;4.63;;;;;;;;;;5147917;27;20130;-59
2022/01/15 05:30:31;;;;;;;11.50;3.58;;;;;;;;;;5147450;27;20039;-59
2022/01/15 05:32:57;;;;;;;14.13;4.00;;;;;;;;;;5148019;27;20072;-60
2022/01/15 05:35:26;;;;;;;15.02;4.60;;;;;;;;;;5146649;27;20129;-60
2022/01/15 05:37:59;;;;;;;14.68;4.50;;;;;;;;;;5147760;27;20047;-60
2022/01/15 05:40:25;;;;;;;10.32;4.28;;;;;;;;;;5147741;27;20047;-59
2022/01/15 05:42:52;;;;;;;14.45;3.75;;;;;;;;;;5147544;27;20051;-59
2022/01/15 05:45:19;;;;;;;15.18;4.70;;;;;;;;;;5147763;27;20054;-60
2022/01/15 05:47:45;;;;;;;13.98;3.90;;;;;;;;;;5147207;27;20071;-60
2022/01/15 05:50:11;;;;;;;12.05;4.40;;;;;;;;;;5145030;27;20421;-59
2022/01/15 05:52:37;;;;;;;9.63;5.38;;;;;;;;;;5147354;27;20059;-60
2022/01/15 05:55:04;;;;;;;10.80;5.00;;;;;;;;;;5147649;27;20039;-59
2022/01/15 05:57:30;;;;;;;9.77;4.25;;;;;;;;;;5147123;27;20058;-59
2022/01/15 05:59:56;;;;;;;6.95;4.00;;;;;;;;;;5147033;27;20193;-60
2022/01/15 06:02:23;;;;;;;8.57;4.88;;;;;;;;;;5146778;27;20070;-59
2022/01/15 06:04:49;;;;;;;10.80;4.32;;;;;;;;;;5147000;27;20073;-59
2022/01/15 06:07:15;;;;;;;12.70;4.57;;;;;;;;;;5146280;27;20051;-60
2022/01/15 06:09:42;;;;;;;10.05;4.45;;;;;;;;;;5147471;27;20082;-60
2022/01/15 06:12:09;;;;;;;7.45;4.22;;;;;;;;;;5146985;27;20043;-59
2022/01/15 06:14:35;;;;;;;6.75;4.03;;;;;;;;;;5146926;27;20617;-60
2022/01/15 06:17:03;;;;;;;6.25;4.18;;;;;;;;;;5146951;27;20068;-60
2022/01/15 06:19:29;;;;;;;6.75;3.85;;;;;;;;;;5146495;27;20043;-58
2022/01/15 06:21:56;;;;;;;7.55;4.35;;;;;;;;;;5145738;27;20040;-61
2022/01/15 06:24:23;;;;;;;8.00;4.22;;;;;;;;;;5147126;27;20055;-61
2022/01/15 06:26:49;;;;;;;13.07;4.85;;;;;;;;;;5146567;27;20510;-60
2022/01/15 06:29:15;;;;;;;10.05;4.32;;;;;;;;;;5146818;27;20042;-61
2022/01/15 06:31:41;;;;;;;9.82;4.30;;;;;;;;;;5146551;27;20074;-60
2022/01/15 06:34:07;;;;;;;8.75;4.78;;;;;;;;;;5146335;27;20608;-60
2022/01/15 06:36:35;;;;;;;10.60;5.30;;;;;;;;;;5146045;27;20049;-61
2022/01/15 06:39:01;;;;;;;9.48;3.90;;;;;;;;;;5146835;27;20051;-59
2022/01/15 06:41:27;;;;;;;7.95;3.80;;;;;;;;;;5146047;27;21603;-59
2022/01/15 06:43:54;;;;;;;7.93;3.47;;;;;;;;;;5146619;27;20159;-60
2022/01/15 06:46:20;;;;;;;10.63;4.25;;;;;;;;;;5146040;27;20036;-59
2022/01/15 06:48:46;;;;;;;10.38;4.20;;;;;;;;;;5146300;27;20071;-60
2022/01/15 06:51:12;;;;;;;8.80;5.35;;;;;;;;;;5145799;27;20057;-59
2022/01/15 06:53:38;;;;;;;10.23;4.57;;;;;;;;;;5145031;27;20045;-60
2022/01/15 06:56:04;;;;;;;12.30;4.72;;;;;;;;;;5146002;27;20502;-59
2022/01/15 06:58:31;;;;;;;9.10;5.20;;;;;;;;;;5146070;27;20054;-60
2022/01/15 07:00:57;;;;;;;12.02;5.25;;;;;;;;;;5145574;27;20043;-59
2022/01/15 07:03:23;;;;;;;12.20;5.78;;;;;;;;;;5146140;27;20038;-59
2022/01/15 07:05:49;;;;;;;11.02;5.25;;;;;;;;;;5145628;27;20130;-59
2022/01/15 07:08:15;;;;;;;14.65;6.03;;;;;;;;;;5145796;27;20042;-59
2022/01/15 07:10:43;;;;;;;12.88;5.25;;;;;;;;;;5145209;27;20047;-59
2022/01/15 07:13:09;;;;;;;13.48;5.72;;;;;;;;;;5144475;27;20055;-59
2022/01/15 07:15:35;;;;;;;9.60;5.07;;;;;;;;;;5145878;27;20039;-59
2022/01/15 07:18:02;;;;;;;11.30;5.03;;;;;;;;;;5145954;27;20047;-60
2022/01/15 07:20:28;;;;;;;12.20;5.47;;;;;;;;;;5145056;27;20074;-59
2022/01/15 07:22:55;;;;;;;9.02;4.80;;;;;;;;;;5145357;27;20099;-59
2022/01/15 07:25:21;;;;;;;8.55;4.50;;;;;;;;;;5145632;27;20112;-59
2022/01/15 07:27:47;;;;;;;13.40;5.90;;;;;;;;;;5145611;27;20115;-59
2022/01/15 07:30:14;;;;;;;10.02;5.65;;;;;;;;;;5145332;27;20062;-59
2022/01/15 07:32:42;;;;;;;10.35;5.25;;;;;;;;;;5145842;27;20311;-60
2022/01/15 07:35:10;;;;;;;;;;;;;;;;;;5145694;27;20043;-60
2022/01/15 07:37:37;;;;;;;12.40;5.72;;;;;;;;;;5145404;27;19919;-60
2022/01/15 07:40:04;;;;;;;15.25;6.70;;;;;;;;;;5145045;27;20047;-60
2022/01/15 07:42:36;;;;;;;14.50;5.70;;;;;;;;;;5145307;27;20090;-60
2022/01/15 07:45:04;;;;;;;16.85;6.13;;;;;;;;;;5145302;27;20062;-61
2022/01/15 07:47:30;;;;;;;11.88;5.55;;;;;;;;;;5144188;28;20077;-60
2022/01/15 07:49:56;;;;;;;13.07;4.78;;;;;;;;;;5145832;28;20046;-59
2022/01/15 07:52:22;;;;;;;8.75;3.65;;;;;;;;;;5143760;28;20067;-59
2022/01/15 07:54:48;;;;;;;7.60;4.05;;;;;;;;;;5144269;28;20051;-59
2022/01/15 07:57:14;;;;;;;7.63;4.07;;;;;;;;;;5143839;28;20043;-60
2022/01/15 07:59:40;;;;;;;11.55;5.20;;;;;;;;;;5145320;28;20134;-59
2022/01/15 08:02:07;;;;;;;7.90;4.90;;;;;;;;;;5144056;28;20099;-59
2022/01/15 08:04:33;;;;;;;9.20;4.13;;;;;;;;;;5144852;28;20099;-59
2022/01/15 08:07:00;;;;;;;9.23;4.20;;;;;;;;;;5144582;27;20440;-59
2022/01/15 08:09:26;;;;;;;9.10;4.40;;;;;;;;;;5145373;28;20121;-59
2022/01/15 08:11:52;;;;;;;11.05;4.75;;;;;;;;;;5145179;28;20072;-59
2022/01/15 08:14:18;;;;;;;13.88;5.10;;;;;;;;;;5145286;28;20463;-59
2022/01/15 08:16:44;;;;;;;8.98;4.35;;;;;;;;;;5145225;28;20095;-59
2022/01/15 08:19:10;;;;;;;6.93;4.47;;;;;;;;;;5145141;28;20054;-59
2022/01/15 08:21:36;;;;;;;7.63;3.92;;;;;;;;;;5144446;27;20177;-59
2022/01/15 08:24:02;;;;;;;7.85;4.15;;;;;;;;;;5146556;27;20130;-59
2022/01/15 08:26:29;;;;;;;7.05;3.67;;;;;;;;;;5149300;27;20035;-59
2022/01/15 08:28:56;;;;;;;7.28;4.20;;;;;;;;;;5149048;27;20514;-60
2022/01/15 08:31:22;;;;;;;7.13;4.35;;;;;;;;;;5148935;27;20054;-59
2022/01/15 08:33:48;;;;;;;7.13;3.53;;;;;;;;;;5149273;27;20087;-59
2022/01/15 08:36:16;;;;;;;7.30;3.80;;;;;;;;;;5148282;27;20075;-60
2022/01/15 08:38:42;;;;;;;8.40;4.18;;;;;;;;;;5148773;27;20051;-59
2022/01/15 08:41:08;;;;;;;7.07;3.58;;;;;;;;;;5148991;27;20039;-60
2022/01/15 08:43:34;;;;;;;9.32;4.22;;;;;;;;;;5148744;27;20051;-60
2022/01/15 08:46:02;;;;;;;6.57;3.60;;;;;;;;;;5148686;27;20091;-59
2022/01/15 08:48:28;;;;;;;9.23;4.10;;;;;;;;;;5148147;27;20039;-59
2022/01/15 08:50:54;;;;;;;6.80;3.72;;;;;;;;;;5140381;27;20443;-59
2022/01/15 08:53:21;;;;;;;8.70;3.92;;;;;;;;;;5141753;27;20099;-59
2022/01/15 08:55:48;;;;;;;7.78;4.20;;;;;;;;;;5150486;27;20066;-59
2022/01/15 08:58:14;;;;;;;6.93;3.78;;;;;;;;;;5148404;27;20407;-60
2022/01/15 09:00:40;;;;;;;7.00;3.80;;;;;;;;;;5144527;27;20094;-59
2022/01/15 09:03:07;;;;;;;7.10;4.07;;;;;;;;;;5146953;27;20046;-60
2022/01/15 09:05:36;;;;;;;7.07;4.10;;;;;;;;;;5145314;27;20050;-59
2022/01/15 09:08:03;;;;;;;7.65;4.50;;;;;;;;;;5157633;27;20039;-59
2022/01/15 09:10:29;;;;;;;12.60;4.40;;;;;;;;;;5161542;27;20046;-60
2022/01/15 09:12:55;;;;;;;8.52;3.88;;;;;;;;;;5157909;27;20043;-60
2022/01/15 09:15:22;;;;;;;11.70;4.15;;;;;;;;;;5147912;27;20050;-59
2022/01/15 09:17:48;;;;;;;6.90;3.78;;;;;;;;;;5154188;27;20049;-59
2022/01/15 09:20:14;;;;;;;9.07;4.40;;;;;;;;;;5167841;27;20057;-59
2022/01/15 09:22:40;;;;;;;6.85;3.78;;;;;;;;;;5166888;27;20079;-59
2022/01/15 09:25:07;;;;;;;8.63;4.85;;;;;;;;;;5168813;27;20150;-60
2022/01/15 09:30:19;;;;;;;6.75;3.50;;;;;;;;;;5147812;27;20596;-59
2022/01/15 09:32:47;;;;;;;5.50;3.33;;;;;;;;;;5148279;27;20073;-59
2022/01/15 09:35:13;;;;;;;;;;;;;;;;;;5157587;27;20544;-59
2022/01/15 09:37:39;;;;;;;5.07;2.92;;;;;;;;;;5152439;27;19919;-59
2022/01/15 09:40:06;;;;;;;3.65;2.58;;;;;;;;;;5147347;27;20047;-59
2022/01/15 09:42:33;;;;;;;4.13;2.55;;;;;;;;;;5148611;27;20391;-59
2022/01/15 09:44:59;;;;;;;4.28;2.38;;;;;;;;;;5157113;27;20051;-60
2022/01/15 09:47:25;;;;;;;4.57;2.72;;;;;;;;;;5168139;27;20051;-59
2022/01/15 09:49:53;;;;;;;6.57;2.97;;;;;;;;;;5150140;27;20478;-59
2022/01/15 09:52:19;;;;;;;;;;;;;;;;;;5143736;27;20050;-59
2022/01/15 09:54:45;;;;;;;4.38;2.75;;;;;;;;;;5151902;27;20397;-60
2022/01/15 09:57:11;;;;;;;6.95;3.20;;;;;;;;;;5150352;27;20038;-59
2022/01/15 09:59:37;;;;;;;9.45;4.10;;;;;;;;;;5159680;27;20042;-60
2022/01/15 10:02:05;;;;;;;7.20;4.38;;;;;;;;;;5136810;27;20069;-59
2022/01/15 10:04:32;;;;;;;8.68;5.05;;;;;;;;;;5139338;27;20046;-59
2022/01/15 10:07:13;;;;;;;11.18;6.43;;;;;;;;;;5133987;27;20063;-59
2022/01/15 10:09:41;;;;;;;10.30;5.45;;;;;;;;;;5132498;27;20048;-60
2022/01/15 10:12:08;;;;;;;11.43;6.78;;;;;;;;;;5134862;27;20047;-60
2022/01/15 10:14:34;;;;;;;11.07;6.50;;;;;;;;;;5134044;27;20043;-60
2022/01/15 10:17:01;;;;;;;14.88;7.63;;;;;;;;;;5134036;27;21161;-60
2022/01/15 10:19:29;;;;;;;13.27;6.93;;;;;;;;;;5140640;27;20043;-58
2022/01/15 10:22:05;;;;;;;14.02;8.13;;;;;;;;;;5144177;27;20046;-59
2022/01/15 10:24:31;;;;;;;17.15;8.48;;;;;;;;;;5145151;27;20088;-59
2022/01/15 10:27:16;;;;;;;13.38;7.28;;;;;;;;;;5146401;27;20035;-59
2022/01/15 10:29:42;;;;;;;11.98;6.70;;;;;;;;;;5146449;27;20277;-61
2022/01/15 10:32:13;;;;;;;15.32;9.00;;;;;;;;;;5145526;27;20546;-59
2022/01/15 10:34:42;;;;;;;12.52;7.80;;;;;;;;;;5145505;27;20035;-59
2022/01/15 10:37:12;;;;;;;14.32;8.50;;;;;;;;;;5138039;27;20053;-59
2022/01/15 10:39:38;;;;;;;18.95;9.52;;;;;;;;;;5146126;27;20070;-59
2022/01/15 10:42:15;;;;;;;17.50;9.07;;;;;;;;;;5145852;27;20073;-59
2022/01/15 10:44:44;;;;;;;18.55;10.10;;;;;;;;;;5144809;27;20075;-60
2022/01/15 10:47:15;;;;;;;19.08;9.80;;;;;;;;;;5134141;27;20608;-59
2022/01/15 10:49:42;;;;;;;16.13;9.18;;;;;;;;;;5156368;27;20058;-59
2022/01/15 10:52:09;;;;;;;17.52;9.48;;;;;;;;;;5150230;27;20062;-59
2022/01/15 10:54:49;;;;;;;19.92;10.10;;;;;;;;;;5147050;27;20062;-59
2022/01/15 10:57:15;;;;;;;14.85;8.55;;;;;;;;;;5141640;27;20121;-59
2022/01/15 10:59:54;;;;;;;18.30;8.60;;;;;;;;;;5132198;27;20058;-59
2022/01/15 11:02:21;;;;;;;14.82;8.48;;;;;;;;;;5146113;27;20031;-60
2022/01/15 11:04:47;;;;;;;17.77;7.47;;;;;;;;;;5140938;27;20109;-59
2022/01/15 11:07:17;;;;;;;15.43;8.40;;;;;;;;;;5144362;27;20524;-60
2022/01/15 11:09:44;;;;;;;15.77;8.23;;;;;;;;;;5135564;27;20049;-60
2022/01/15 11:12:11;;;;;;;13.70;7.60;;;;;;;;;;5139294;27;20043;-59
2022/01/15 11:14:37;;;;;;;16.83;8.20;;;;;;;;;;5144453;27;20064;-59
2022/01/15 11:17:04;;;;;;;18.33;9.00;;;;;;;;;;5143357;27;20050;-60
2022/01/15 11:19:31;;;;;;;15.32;8.25;;;;;;;;;;5144961;27;20087;-59
2022/01/15 11:22:01;;;;;;;16.07;8.73;;;;;;;;;;5151240;27;20047;-60
2022/01/15 11:24:27;;;;;;;14.65;8.35;;;;;;;;;;5141886;27;20292;-59
2022/01/15 11:26:57;;;;;;;15.57;8.70;;;;;;;;;;5142931;27;20043;-60
2022/01/15 11:29:24;;;;;;;16.83;8.88;;;;;;;;;;5144449;27;20498;-59
2022/01/15 11:31:55;;;;;;;16.58;8.65;;;;;;;;;;5141696;27;20035;-59
2022/01/15 11:34:21;;;;;;;17.42;9.02;;;;;;;;;;5143936;27;20134;-59
2022/01/15 11:36:48;;;;;;;20.52;10.23;;;;;;;;;;5144165;27;20077;-59
2022/01/15 11:39:18;;;;;;;22.80;10.70;;;;;;;;;;5142979;27;20069;-60
2022/01/15 11:41:45;;;;;;;21.13;11.38;;;;;;;;;;5141205;27;20150;-60
2022/01/15 11:44:19;;;;;;;21.07;10.80;;;;;;;;;;5139609;28;20498;-60
2022/01/15 11:46:49;;;;;;;21.33;11.30;;;;;;;;;;5143512;28;20055;-58
2022/01/15 11:49:24;;;;;;;21.00;10.98;;;;;;;;;;5142600;27;20114;-58
2022/01/15 11:51:54;;;;;;;22.60;10.35;;;;;;;;;;5138119;28;20059;-58
2022/01/15 11:54:21;;;;;;;24.33;12.40;;;;;;;;;;5143595;28;20118;-58
2022/01/15 11:56:48;;;;;;;20.13;11.15;;;;;;;;;;5134032;27;20047;-59
2022/01/15 11:59:27;;;;;;;20.95;10.80;;;;;;;;;;5147056;27;20054;-60
2022/01/15 12:01:56;;;;;;;24.60;12.50;;;;;;;;;;5147962;27;20486;-59
2022/01/15 12:04:25;;;;;;;23.40;11.23;;;;;;;;;;5146343;27;20043;-59
2022/01/15 12:07:01;;;;;;;22.35;10.95;;;;;;;;;;5140790;27;20083;-60
2022/01/15 12:09:34;;;;;;;22.10;12.20;;;;;;;;;;5143597;27;20494;-63
2022/01/15 12:12:00;;;;;;;22.00;12.13;;;;;;;;;;5141759;27;20080;-66
2022/01/15 12:14:45;;;;;;;25.75;13.63;;;;;;;;;;5148768;27;20035;-65
2022/01/15 12:17:24;;;;;;;25.25;12.85;;;;;;;;;;5151648;27;20047;-66
2022/01/15 12:19:50;;;;;;;;;;;;;;;;;;5160860;27;20050;-66
2022/01/15 12:22:34;;;;;;;23.27;13.27;;;;;;;;;;5148034;27;19958;-65
2022/01/15 12:25:02;;;;;;;27.80;13.65;;;;;;;;;;5148733;27;20047;-65
2022/01/15 12:27:29;;;;;;;22.23;12.27;;;;;;;;;;5150089;27;20043;-66
2022/01/15 12:29:55;;;;;;;;;;;;;;;;;;5165644;27;20462;-67
2022/01/15 12:32:29;;;;;;;21.48;12.68;;;;;;;;;;5152077;27;19941;-60
2022/01/15 12:34:56;;;;;;;20.63;11.70;;;;;;;;;;5142920;27;20070;-60
2022/01/15 12:37:22;;;;;;;22.73;12.18;;;;;;;;;;5146949;27;20054;-59
2022/01/15 12:39:49;;;;;;;19.90;12.25;;;;;;;;;;5142770;27;20048;-60
2022/01/15 12:42:17;;;;;;;21.80;12.70;;;;;;;;;;5130181;27;20103;-64
2022/01/15 12:44:47;;;;;;;24.65;13.43;;;;;;;;;;5140312;27;20047;-62
2022/01/15 12:47:14;;;;;;;24.77;14.20;;;;;;;;;;5146737;27;20098;-61
2022/01/15 12:49:41;;;;;;;24.00;14.00;;;;;;;;;;5144999;27;20054;-65
2022/01/15 12:52:12;;;;;;;23.95;12.77;;;;;;;;;;5151083;27;20061;-65
2022/01/15 12:54:38;;;;;;;23.73;13.38;;;;;;;;;;5142508;27;20065;-66
2022/01/15 12:57:05;;;;;;;26.75;14.43;;;;;;;;;;5137984;27;20039;-63
2022/01/15 12:59:33;;;;;;;24.50;14.77;;;;;;;;;;5133951;27;20047;-64
2022/01/15 13:02:00;;;;;;;25.58;15.35;;;;;;;;;;5137726;27;20104;-64
2022/01/15 13:04:27;;;;;;;27.65;15.30;;;;;;;;;;5126902;27;20035;-68
2022/01/15 13:07:00;;;;;;;26.40;14.77;;;;;;;;;;5127714;27;20111;-63
2022/01/15 13:09:39;;;;;;;24.27;14.85;;;;;;;;;;5135468;27;20035;-64
2022/01/15 13:12:07;;;;;;;24.73;15.65;;;;;;;;;;5130831;27;20072;-64
2022/01/15 13:14:40;;;;;;;26.40;16.13;;;;;;;;;;5132011;27;20075;-65
2022/01/15 13:17:19;;;;;;;26.65;15.73;;;;;;;;;;5141839;27;20036;-68
2022/01/15 13:19:45;;;;;;;25.55;15.77;;;;;;;;;;5136521;27;20078;-67
2022/01/15 13:22:11;;;;;;;25.15;15.18;;;;;;;;;;5145039;27;20106;-69
2022/01/15 13:24:37;;;;;;;27.52;15.35;;;;;;;;;;5158405;27;20043;-66
2022/01/15 13:27:04;;;;;;;28.30;17.02;;;;;;;;;;5146957;27;20157;-65
2022/01/15 13:29:37;;;;;;;29.35;16.00;;;;;;;;;;5139809;27;20054;-67
2022/01/15 13:32:06;;;;;;;31.58;17.15;;;;;;;;;;5134610;27;20131;-66
2022/01/15 13:34:34;;;;;;;32.17;17.15;;;;;;;;;;5144167;27;20031;-66
2022/01/15 13:37:13;;;;;;;29.38;15.73;;;;;;;;;;5141706;27;20042;-65
2022/01/15 13:39:40;;;;;;;35.92;18.40;;;;;;;;;;5141118;27;20102;-66
2022/01/15 13:42:17;;;;;;;30.40;17.00;;;;;;;;;;5145620;27;20074;-66
2022/01/15 13:44:43;;;;;;;37.38;19.33;;;;;;;;;;5143251;27;20747;-67
2022/01/15 13:47:11;;;;;;;34.08;19.20;;;;;;;;;;5141839;27;20523;-64
2022/01/15 13:55:15;;;;;;;43.20;19.75;;;;;;;;;;5140477;27;20050;-63
2022/01/15 13:57:42;;;;;;;34.67;18.27;;;;;;;;;;5146849;27;20498;-62
2022/01/15 14:00:12;;;;;;;36.22;19.08;;;;;;;;;;5140199;27;20091;-64
2022/01/15 14:02:39;;;;;;;39.95;20.15;;;;;;;;;;5146023;27;20563;-63
2022/01/15 14:05:26;;;;;;;40.10;19.45;;;;;;;;;;5133414;27;20079;-64
2022/01/15 14:07:52;;;;;;;39.88;20.83;;;;;;;;;;5157536;27;20043;-63
2022/01/15 14:10:20;;;;;;;41.17;19.95;;;;;;;;;;5134298;27;20058;-64
2022/01/15 14:12:47;;;;;;;40.95;20.48;;;;;;;;;;5139942;27;20039;-63
2022/01/15 14:15:14;;;;;;;40.55;20.48;;;;;;;;;;5139299;27;20057;-62
2022/01/15 14:17:43;;;;;;;38.97;20.80;;;;;;;;;;5138569;27;20043;-63
2022/01/15 14:22:43;;;;;;;50.08;22.33;;;;;;;;;;5131538;27;20065;-63
2022/01/15 14:25:11;;;;;;;34.65;18.10;;;;;;;;;;5136351;27;20130;-66
2022/01/15 14:27:37;;;;;;;34.58;17.98;;;;;;;;;;5136749;27;20031;-68
2022/01/15 14:30:04;;;;;;;34.70;17.42;;;;;;;;;;5144004;27;20057;-65
2022/01/15 14:32:30;;;;;;;40.20;19.08;;;;;;;;;;5142971;27;20043;-67
2022/01/15 14:34:57;;;;;;;41.20;19.58;;;;;;;;;;5147165;27;20124;-64
2022/01/15 14:37:24;;;;;;;36.63;17.58;;;;;;;;;;5141685;27;20084;-64
2022/01/15 14:39:53;;;;;;;38.70;18.30;;;;;;;;;;5153861;27;20046;-64
2022/01/15 14:42:19;;;;;;;41.00;19.42;;;;;;;;;;5140128;27;20047;-67
2022/01/15 14:44:45;;;;;;;40.17;19.90;;;;;;;;;;5144677;27;20061;-66
2022/01/15 14:47:12;;;;;;;40.55;19.75;;;;;;;;;;5147029;27;20194;-65
2022/01/15 14:49:38;;;;;;;40.70;18.08;;;;;;;;;;5148797;27;20927;-66
2022/01/15 14:52:04;;;;;;;46.55;22.30;;;;;;;;;;5144086;27;20049;-66
2022/01/15 14:54:30;;;;;;;41.45;20.02;;;;;;;;;;5142026;27;20051;-65
2022/01/15 14:56:56;;;;;;;35.13;18.48;;;;;;;;;;5140059;27;20082;-66
2022/01/15 14:59:22;;;;;;;39.92;19.13;;;;;;;;;;5137891;27;20035;-65
2022/01/15 15:01:49;;;;;;;42.78;19.48;;;;;;;;;;5145083;27;20549;-60
2022/01/15 15:04:15;;;;;;;38.03;18.83;;;;;;;;;;5146154;27;20035;-63